sensor_id;sensor_type;location;lat;lon;timestamp;pressure;altitude;pressure_sealevel;temperature;humidity
11648;BME280;5880;52.342;9.662;2024-03-25T00:00:32;99625.53;;;10.06;56.42
11648;BME280;5880;52.342;9.662;2024-03-25T00:02:58;99634.63;;;10.12;56.46
11648;BME280;5880;52.342;9.662;2024-03-25T00:05:23;99637.09;;;10.13;56.18
11648;BME280;5880;52.342;9.662;2024-03-25T00:07:51;99636.84;;;10.15;56.12
11648;BME280;5880;52.342;9.662;2024-03-25T00:10:18;99641.47;;;10.14;56.40
11648;BME280;5880;52.342;9.662;2024-03-25T00:12:46;99631.31;;;10.10;56.34
11648;BME280;5880;52.342;9.662;2024-03-25T00:15:13;99641.72;;;10.13;56.40
11648;BME280;5880;52.342;9.662;2024-03-25T00:17:38;99642.00;;;10.11;56.18
11648;BME280;5880;52.342;9.662;2024-03-25T00:20:05;99643.63;;;10.12;56.32
11648;BME280;5880;52.342;9.662;2024-03-25T00:22:34;99644.47;;;10.13;56.31
11648;BME280;5880;52.342;9.662;2024-03-25T00:25:00;99643.41;;;10.14;56.25
11648;BME280;5880;52.342;9.662;2024-03-25T00:27:25;99652.41;;;10.14;56.16
11648;BME280;5880;52.342;9.662;2024-03-25T00:29:51;99671.53;;;10.14;56.16
11648;BME280;5880;52.342;9.662;2024-03-25T00:32:17;99662.50;;;10.14;56.08
11648;BME280;5880;52.342;9.662;2024-03-25T00:34:42;99658.09;;;10.13;56.31
11648;BME280;5880;52.342;9.662;2024-03-25T00:37:08;99660.59;;;10.14;56.18
11648;BME280;5880;52.342;9.662;2024-03-25T00:39:34;99664.97;;;10.15;56.06
11648;BME280;5880;52.342;9.662;2024-03-25T00:42:00;99660.03;;;10.12;56.33
11648;BME280;5880;52.342;9.662;2024-03-25T00:44:26;99672.09;;;10.17;56.46
11648;BME280;5880;52.342;9.662;2024-03-25T00:46:52;99671.00;;;10.18;56.67
11648;BME280;5880;52.342;9.662;2024-03-25T00:49:18;99668.28;;;10.18;56.30
11648;BME280;5880;52.342;9.662;2024-03-25T00:51:43;99669.09;;;10.18;56.52
11648;BME280;5880;52.342;9.662;2024-03-25T00:54:09;99680.59;;;10.20;56.53
11648;BME280;5880;52.342;9.662;2024-03-25T00:56:37;99683.91;;;10.22;56.50
11648;BME280;5880;52.342;9.662;2024-03-25T00:59:03;99680.09;;;10.23;56.46
11648;BME280;5880;52.342;9.662;2024-03-25T01:01:29;99679.53;;;10.21;56.41
11648;BME280;5880;52.342;9.662;2024-03-25T01:03:56;99676.22;;;10.19;56.71
11648;BME280;5880;52.342;9.662;2024-03-25T01:06:21;99680.59;;;10.20;56.40
11648;BME280;5880;52.342;9.662;2024-03-25T01:08:48;99677.56;;;10.17;56.39
11648;BME280;5880;52.342;9.662;2024-03-25T01:11:13;99678.97;;;10.19;56.56
11648;BME280;5880;52.342;9.662;2024-03-25T01:13:39;99686.31;;;10.19;56.54
11648;BME280;5880;52.342;9.662;2024-03-25T01:16:07;99688.72;;;10.15;56.55
11648;BME280;5880;52.342;9.662;2024-03-25T01:18:33;99692.34;;;10.21;56.52
11648;BME280;5880;52.342;9.662;2024-03-25T01:20:59;99691.03;;;10.23;56.57
11648;BME280;5880;52.342;9.662;2024-03-25T01:23:25;99690.75;;;10.25;56.36
11648;BME280;5880;52.342;9.662;2024-03-25T01:25:50;99697.63;;;10.27;56.59
11648;BME280;5880;52.342;9.662;2024-03-25T01:28:16;99691.34;;;10.27;56.49
11648;BME280;5880;52.342;9.662;2024-03-25T01:30:42;99691.13;;;10.28;56.64
11648;BME280;5880;52.342;9.662;2024-03-25T01:33:07;99691.34;;;10.27;56.54
11648;BME280;5880;52.342;9.662;2024-03-25T01:35:33;99695.97;;;10.26;56.67
11648;BME280;5880;52.342;9.662;2024-03-25T01:37:59;99692.44;;;10.26;56.62
11648;BME280;5880;52.342;9.662;2024-03-25T01:40:24;99694.31;;;10.25;56.61
11648;BME280;5880;52.342;9.662;2024-03-25T01:42:58;99694.88;;;10.27;56.47
11648;BME280;5880;52.342;9.662;2024-03-25T01:45:28;99692.44;;;10.26;56.46
11648;BME280;5880;52.342;9.662;2024-03-25T01:47:56;99689.69;;;10.26;56.51
11648;BME280;5880;52.342;9.662;2024-03-25T01:50:22;99693.00;;;10.28;56.93
11648;BME280;5880;52.342;9.662;2024-03-25T01:52:49;99687.22;;;10.24;56.32
11648;BME280;5880;52.342;9.662;2024-03-25T01:55:20;99698.47;;;10.28;56.59
11648;BME280;5880;52.342;9.662;2024-03-25T01:57:47;99700.63;;;10.26;56.53
11648;BME280;5880;52.342;9.662;2024-03-25T02:00:15;99698.66;;;10.21;56.28
11648;BME280;5880;52.342;9.662;2024-03-25T02:02:42;99706.56;;;10.23;56.17
11648;BME280;5880;52.342;9.662;2024-03-25T02:05:11;99708.25;;;10.24;56.34
11648;BME280;5880;52.342;9.662;2024-03-25T02:07:37;99716.66;;;10.22;56.17
11648;BME280;5880;52.342;9.662;2024-03-25T02:10:04;99701.63;;;10.20;56.24
11648;BME280;5880;52.342;9.662;2024-03-25T02:12:32;99715.28;;;10.20;56.37
11648;BME280;5880;52.342;9.662;2024-03-25T02:14:59;99706.78;;;10.16;56.41
11648;BME280;5880;52.342;9.662;2024-03-25T02:17:25;99718.19;;;10.13;56.20
11648;BME280;5880;52.342;9.662;2024-03-25T02:19:51;99722.47;;;10.09;56.17
11648;BME280;5880;52.342;9.662;2024-03-25T02:22:17;99729.84;;;10.08;56.23
11648;BME280;5880;52.342;9.662;2024-03-25T02:24:45;99728.22;;;10.07;56.36
11648;BME280;5880;52.342;9.662;2024-03-25T02:27:12;99727.63;;;10.05;56.15
11648;BME280;5880;52.342;9.662;2024-03-25T02:29:40;99736.66;;;10.06;56.41
11648;BME280;5880;52.342;9.662;2024-03-25T02:32:07;99733.09;;;10.05;56.37
11648;BME280;5880;52.342;9.662;2024-03-25T02:34:50;99740.19;;;10.06;56.24
11648;BME280;5880;52.342;9.662;2024-03-25T02:37:16;99741.53;;;10.04;56.21
11648;BME280;5880;52.342;9.662;2024-03-25T02:39:45;99750.53;;;10.04;56.25
11648;BME280;5880;52.342;9.662;2024-03-25T02:42:11;99747.50;;;10.01;56.34
11648;BME280;5880;52.342;9.662;2024-03-25T02:44:37;99752.38;;;9.99;56.15
11648;BME280;5880;52.342;9.662;2024-03-25T02:47:03;99749.63;;;9.99;56.02
11648;BME280;5880;52.342;9.662;2024-03-25T02:49:29;99759.16;;;9.96;56.06
11648;BME280;5880;52.342;9.662;2024-03-25T02:51:55;99754.22;;;9.93;56.07
11648;BME280;5880;52.342;9.662;2024-03-25T02:54:20;99751.72;;;9.91;56.23
11648;BME280;5880;52.342;9.662;2024-03-25T02:56:46;99762.63;;;9.91;56.13
11648;BME280;5880;52.342;9.662;2024-03-25T02:59:12;99765.03;;;9.88;56.15
11648;BME280;5880;52.342;9.662;2024-03-25T03:01:38;99766.94;;;9.87;56.14
11648;BME280;5880;52.342;9.662;2024-03-25T03:04:04;99771.56;;;9.87;56.27
11648;BME280;5880;52.342;9.662;2024-03-25T03:06:29;99770.47;;;9.88;56.22
11648;BME280;5880;52.342;9.662;2024-03-25T03:08:55;99770.97;;;9.85;56.26
11648;BME280;5880;52.342;9.662;2024-03-25T03:11:20;99775.94;;;9.88;56.41
11648;BME280;5880;52.342;9.662;2024-03-25T03:13:46;99781.16;;;9.89;56.31
11648;BME280;5880;52.342;9.662;2024-03-25T03:16:12;99787.44;;;9.90;56.29
11648;BME280;5880;52.342;9.662;2024-03-25T03:18:37;99788.53;;;9.89;56.40
11648;BME280;5880;52.342;9.662;2024-03-25T03:21:03;99787.72;;;9.88;56.50
11648;BME280;5880;52.342;9.662;2024-03-25T03:23:29;99787.72;;;9.88;56.52
11648;BME280;5880;52.342;9.662;2024-03-25T03:25:54;99784.63;;;9.85;56.65
11648;BME280;5880;52.342;9.662;2024-03-25T03:28:20;99792.91;;;9.90;56.64
11648;BME280;5880;52.342;9.662;2024-03-25T03:30:46;99803.34;;;9.93;56.52
11648;BME280;5880;52.342;9.662;2024-03-25T03:33:12;99806.38;;;9.97;56.82
11648;BME280;5880;52.342;9.662;2024-03-25T03:35:37;99799.88;;;9.98;56.56
11648;BME280;5880;52.342;9.662;2024-03-25T03:38:03;99813.00;;;10.01;56.50
11648;BME280;5880;52.342;9.662;2024-03-25T03:40:29;99818.47;;;10.01;56.54
11648;BME280;5880;52.342;9.662;2024-03-25T03:42:55;99806.38;;;9.97;56.60
11648;BME280;5880;52.342;9.662;2024-03-25T03:45:24;99804.25;;;9.99;56.33
11648;BME280;5880;52.342;9.662;2024-03-25T03:47:50;99803.91;;;9.95;56.61
11648;BME280;5880;52.342;9.662;2024-03-25T03:50:17;99814.09;;;10.00;56.42
11648;BME280;5880;52.342;9.662;2024-03-25T03:52:42;99811.59;;;9.98;56.28
11648;BME280;5880;52.342;9.662;2024-03-25T03:55:08;99811.25;;;9.94;56.39
11648;BME280;5880;52.342;9.662;2024-03-25T03:57:34;99805.13;;;9.87;56.32
11648;BME280;5880;52.342;9.662;2024-03-25T04:00:00;99822.59;;;9.86;56.19
11648;BME280;5880;52.342;9.662;2024-03-25T04:02:28;99819.88;;;9.86;56.30
11648;BME280;5880;52.342;9.662;2024-03-25T04:04:54;99816.78;;;9.83;56.26
11648;BME280;5880;52.342;9.662;2024-03-25T04:07:20;99809.03;;;9.75;56.28
11648;BME280;5880;52.342;9.662;2024-03-25T04:09:53;99817.53;;;9.78;55.91
11648;BME280;5880;52.342;9.662;2024-03-25T04:12:19;99816.72;;;9.78;56.20
11648;BME280;5880;52.342;9.662;2024-03-25T04:14:47;99822.41;;;9.76;56.23
11648;BME280;5880;52.342;9.662;2024-03-25T04:17:14;99817.44;;;9.73;56.23
11648;BME280;5880;52.342;9.662;2024-03-25T04:19:40;99818.53;;;9.72;56.07
11648;BME280;5880;52.342;9.662;2024-03-25T04:22:05;99819.00;;;9.69;56.18
11648;BME280;5880;52.342;9.662;2024-03-25T04:24:32;99820.69;;;9.70;56.16
11648;BME280;5880;52.342;9.662;2024-03-25T04:27:00;99833.50;;;9.69;56.44
11648;BME280;5880;52.342;9.662;2024-03-25T04:29:25;99817.59;;;9.66;56.46
11648;BME280;5880;52.342;9.662;2024-03-25T04:31:51;99834.91;;;9.72;56.56
11648;BME280;5880;52.342;9.662;2024-03-25T04:34:16;99840.97;;;9.74;56.65
11648;BME280;5880;52.342;9.662;2024-03-25T04:36:42;99834.41;;;9.75;56.63
11648;BME280;5880;52.342;9.662;2024-03-25T04:39:08;99843.78;;;9.79;56.75
11648;BME280;5880;52.342;9.662;2024-03-25T04:41:33;99845.19;;;9.82;56.76
11648;BME280;5880;52.342;9.662;2024-03-25T04:43:59;99836.75;;;9.83;56.68
11648;BME280;5880;52.342;9.662;2024-03-25T04:46:25;99836.16;;;9.81;56.68
11648;BME280;5880;52.342;9.662;2024-03-25T04:48:50;99848.22;;;9.85;56.48
11648;BME280;5880;52.342;9.662;2024-03-25T04:51:16;99843.25;;;9.82;56.58
11648;BME280;5880;52.342;9.662;2024-03-25T04:53:41;99851.53;;;9.87;56.64
11648;BME280;5880;52.342;9.662;2024-03-25T04:56:07;99846.81;;;9.83;56.66
11648;BME280;5880;52.342;9.662;2024-03-25T04:58:33;99858.91;;;9.87;56.63
11648;BME280;5880;52.342;9.662;2024-03-25T05:00:59;99856.19;;;9.87;56.56
11648;BME280;5880;52.342;9.662;2024-03-25T05:03:24;99863.28;;;9.88;56.72
11648;BME280;5880;52.342;9.662;2024-03-25T05:05:50;99868.50;;;9.89;56.79
11648;BME280;5880;52.342;9.662;2024-03-25T05:08:16;99870.16;;;9.90;56.87
11648;BME280;5880;52.342;9.662;2024-03-25T05:10:41;99865.78;;;9.89;56.61
11648;BME280;5880;52.342;9.662;2024-03-25T05:13:07;99860.66;;;9.93;56.55
11648;BME280;5880;52.342;9.662;2024-03-25T05:15:32;99865.84;;;9.94;56.56
11648;BME280;5880;52.342;9.662;2024-03-25T05:17:58;99870.00;;;9.97;56.63
11648;BME280;5880;52.342;9.662;2024-03-25T05:20:24;99862.38;;;9.99;56.62
11648;BME280;5880;52.342;9.662;2024-03-25T05:22:50;99879.34;;;10.01;56.83
11648;BME280;5880;52.342;9.662;2024-03-25T05:25:15;99881.03;;;10.02;56.63
11648;BME280;5880;52.342;9.662;2024-03-25T05:27:41;99883.75;;;10.02;56.51
11648;BME280;5880;52.342;9.662;2024-03-25T05:30:07;99890.03;;;10.03;56.72
11648;BME280;5880;52.342;9.662;2024-03-25T05:32:33;99895.50;;;10.03;56.85
11648;BME280;5880;52.342;9.662;2024-03-25T05:34:59;99899.63;;;10.05;56.77
11648;BME280;5880;52.342;9.662;2024-03-25T05:37:24;99893.34;;;10.05;56.96
11648;BME280;5880;52.342;9.662;2024-03-25T05:39:50;99897.72;;;10.06;56.89
11648;BME280;5880;52.342;9.662;2024-03-25T05:42:16;99902.59;;;10.04;56.87
11648;BME280;5880;52.342;9.662;2024-03-25T05:44:42;99901.03;;;10.08;56.61
11648;BME280;5880;52.342;9.662;2024-03-25T05:47:10;99901.03;;;10.08;56.72
11648;BME280;5880;52.342;9.662;2024-03-25T05:49:35;99904.59;;;10.08;56.91
11648;BME280;5880;52.342;9.662;2024-03-25T05:52:01;99900.22;;;10.07;57.01
11648;BME280;5880;52.342;9.662;2024-03-25T05:54:27;99905.41;;;10.09;56.97
11648;BME280;5880;52.342;9.662;2024-03-25T05:56:53;99907.66;;;10.12;56.87
11648;BME280;5880;52.342;9.662;2024-03-25T05:59:19;99910.13;;;10.13;56.91
11648;BME280;5880;52.342;9.662;2024-03-25T06:01:44;99911.47;;;10.11;56.83
11648;BME280;5880;52.342;9.662;2024-03-25T06:04:10;99924.13;;;10.17;56.83
11648;BME280;5880;52.342;9.662;2024-03-25T06:06:36;99926.63;;;10.19;57.03
11648;BME280;5880;52.342;9.662;2024-03-25T06:09:01;99920.09;;;10.20;56.77
11648;BME280;5880;52.342;9.662;2024-03-25T06:11:27;99928.03;;;10.21;56.78
11648;BME280;5880;52.342;9.662;2024-03-25T06:13:52;99934.91;;;10.24;57.02
11648;BME280;5880;52.342;9.662;2024-03-25T06:16:21;99933.59;;;10.26;57.02
11648;BME280;5880;52.342;9.662;2024-03-25T06:18:46;99930.38;;;10.29;57.02
11648;BME280;5880;52.342;9.662;2024-03-25T06:21:12;99931.78;;;10.32;56.98
11648;BME280;5880;52.342;9.662;2024-03-25T06:23:38;99934.28;;;10.33;56.83
11648;BME280;5880;52.342;9.662;2024-03-25T06:26:04;99934.28;;;10.33;56.94
11648;BME280;5880;52.342;9.662;2024-03-25T06:28:29;99937.84;;;10.34;56.96
11648;BME280;5880;52.342;9.662;2024-03-25T06:30:55;99940.31;;;10.35;57.07
11648;BME280;5880;52.342;9.662;2024-03-25T06:33:39;99945.78;;;10.35;57.07
11648;BME280;5880;52.342;9.662;2024-03-25T06:36:23;99951.50;;;10.34;57.08
11648;BME280;5880;52.342;9.662;2024-03-25T06:38:49;99953.97;;;10.35;56.91
11648;BME280;5880;52.342;9.662;2024-03-25T06:41:15;99957.31;;;10.38;57.07
11648;BME280;5880;52.342;9.662;2024-03-25T06:43:41;99955.97;;;10.40;57.02
11648;BME280;5880;52.342;9.662;2024-03-25T06:46:07;99955.97;;;10.40;57.19
11648;BME280;5880;52.342;9.662;2024-03-25T06:48:33;99952.22;;;10.46;57.23
11648;BME280;5880;52.342;9.662;2024-03-25T06:51:00;99958.28;;;10.48;57.13
11648;BME280;5880;52.342;9.662;2024-03-25T06:53:28;99972.03;;;10.53;57.23
11648;BME280;5880;52.342;9.662;2024-03-25T06:56:01;99976.50;;;10.60;57.06
11648;BME280;5880;52.342;9.662;2024-03-25T06:58:27;99984.47;;;10.61;57.29
11648;BME280;5880;52.342;9.662;2024-03-25T07:00:55;99983.13;;;10.64;57.20
11648;BME280;5880;52.342;9.662;2024-03-25T07:03:23;99981.81;;;10.66;57.20
11648;BME280;5880;52.342;9.662;2024-03-25T07:05:51;99985.13;;;10.68;57.17
11648;BME280;5880;52.342;9.662;2024-03-25T07:08:21;99984.03;;;10.69;56.91
11648;BME280;5880;52.342;9.662;2024-03-25T07:10:46;99978.34;;;10.71;57.28
11648;BME280;5880;52.342;9.662;2024-03-25T07:13:12;99984.38;;;10.73;57.32
11648;BME280;5880;52.342;9.662;2024-03-25T07:15:39;99986.63;;;10.76;57.47
11648;BME280;5880;52.342;9.662;2024-03-25T07:18:05;99980.09;;;10.77;57.55
11648;BME280;5880;52.342;9.662;2024-03-25T07:20:31;99982.88;;;10.82;57.54
11648;BME280;5880;52.342;9.662;2024-03-25T07:22:57;99984.03;;;10.86;57.36
11648;BME280;5880;52.342;9.662;2024-03-25T07:25:24;99982.47;;;10.90;57.38
11648;BME280;5880;52.342;9.662;2024-03-25T07:27:50;99989.31;;;10.93;57.56
11648;BME280;5880;52.342;9.662;2024-03-25T07:30:16;99998.69;;;10.97;57.51
11648;BME280;5880;52.342;9.662;2024-03-25T07:32:42;99982.88;;;10.99;57.16
11648;BME280;5880;52.342;9.662;2024-03-25T07:35:11;99997.72;;;11.03;57.29
11648;BME280;5880;52.342;9.662;2024-03-25T07:37:37;100002.91;;;11.05;57.48
11648;BME280;5880;52.342;9.662;2024-03-25T07:40:03;100009.78;;;11.07;57.30
11648;BME280;5880;52.342;9.662;2024-03-25T07:42:31;100012.03;;;11.10;57.19
11648;BME280;5880;52.342;9.662;2024-03-25T07:44:57;100011.75;;;11.12;57.07
11648;BME280;5880;52.342;9.662;2024-03-25T07:47:22;100009.59;;;11.14;57.04
11648;BME280;5880;52.342;9.662;2024-03-25T07:49:48;100018.91;;;11.13;57.17
11648;BME280;5880;52.342;9.662;2024-03-25T07:52:13;100017.81;;;11.14;57.12
11648;BME280;5880;52.342;9.662;2024-03-25T07:54:39;100016.75;;;11.15;57.16
11648;BME280;5880;52.342;9.662;2024-03-25T07:57:05;100018.41;;;11.16;56.81
11648;BME280;5880;52.342;9.662;2024-03-25T07:59:31;100022.53;;;11.18;56.99
11648;BME280;5880;52.342;9.662;2024-03-25T08:01:56;100025.84;;;11.20;57.18
11648;BME280;5880;52.342;9.662;2024-03-25T08:04:22;100024.28;;;11.25;56.92
11648;BME280;5880;52.342;9.662;2024-03-25T08:06:48;100029.50;;;11.26;56.97
11648;BME280;5880;52.342;9.662;2024-03-25T08:09:14;100033.38;;;11.30;56.93
11648;BME280;5880;52.342;9.662;2024-03-25T08:11:41;100029.31;;;11.33;57.14
11648;BME280;5880;52.342;9.662;2024-03-25T08:14:09;100038.66;;;11.37;57.18
11648;BME280;5880;52.342;9.662;2024-03-25T08:16:35;100037.59;;;11.38;56.97
11648;BME280;5880;52.342;9.662;2024-03-25T08:19:01;100035.75;;;11.44;57.07
11648;BME280;5880;52.342;9.662;2024-03-25T08:21:27;100033.09;;;11.49;57.24
11648;BME280;5880;52.342;9.662;2024-03-25T08:23:53;100030.69;;;11.52;57.06
11648;BME280;5880;52.342;9.662;2024-03-25T08:26:18;100037.28;;;11.56;57.11
11648;BME280;5880;52.342;9.662;2024-03-25T08:28:44;100032.97;;;11.60;57.32
11648;BME280;5880;52.342;9.662;2024-03-25T08:31:10;100035.78;;;11.66;57.13
11648;BME280;5880;52.342;9.662;2024-03-25T08:33:35;100038.31;;;11.72;57.45
11648;BME280;5880;52.342;9.662;2024-03-25T08:36:01;100042.78;;;11.78;57.40
11648;BME280;5880;52.342;9.662;2024-03-25T08:38:27;100034.41;;;11.85;57.00
11648;BME280;5880;52.342;9.662;2024-03-25T08:40:53;100042.44;;;11.92;57.33
11648;BME280;5880;52.342;9.662;2024-03-25T08:43:19;100041.41;;;11.98;57.13
11648;BME280;5880;52.342;9.662;2024-03-25T08:45:45;100037.13;;;12.07;57.25
11648;BME280;5880;52.342;9.662;2024-03-25T08:48:10;100043.00;;;12.16;57.38
11648;BME280;5880;52.342;9.662;2024-03-25T08:50:36;100049.09;;;12.23;57.25
11648;BME280;5880;52.342;9.662;2024-03-25T08:53:03;100039.59;;;12.31;56.68
11648;BME280;5880;52.342;9.662;2024-03-25T08:55:29;100036.59;;;12.32;56.83
11648;BME280;5880;52.342;9.662;2024-03-25T08:57:56;100046.84;;;12.42;56.51
11648;BME280;5880;52.342;9.662;2024-03-25T09:00:27;100048.03;;;12.51;56.74
11648;BME280;5880;52.342;9.662;2024-03-25T09:02:56;100050.56;;;12.58;56.51
11648;BME280;5880;52.342;9.662;2024-03-25T09:05:22;100046.50;;;12.65;56.63
11648;BME280;5880;52.342;9.662;2024-03-25T09:07:51;100046.06;;;12.74;56.54
11648;BME280;5880;52.342;9.662;2024-03-25T09:10:21;100050.22;;;12.81;56.36
11648;BME280;5880;52.342;9.662;2024-03-25T09:13:05;100049.69;;;12.84;56.11
11648;BME280;5880;52.342;9.662;2024-03-25T09:15:30;100044.53;;;12.88;56.04
11648;BME280;5880;52.342;9.662;2024-03-25T09:17:57;100051.13;;;12.92;56.06
11648;BME280;5880;52.342;9.662;2024-03-25T09:20:22;100047.88;;;12.95;55.64
11648;BME280;5880;52.342;9.662;2024-03-25T09:22:48;100053.06;;;12.97;55.60
11648;BME280;5880;52.342;9.662;2024-03-25T09:25:15;100052.56;;;13.00;55.65
11648;BME280;5880;52.342;9.662;2024-03-25T09:27:41;100059.69;;;13.01;55.34
11648;BME280;5880;52.342;9.662;2024-03-25T09:30:10;100051.47;;;13.01;55.18
11648;BME280;5880;52.342;9.662;2024-03-25T09:32:36;100055.03;;;13.01;55.40
11648;BME280;5880;52.342;9.662;2024-03-25T09:35:03;100054.53;;;13.04;55.17
11648;BME280;5880;52.342;9.662;2024-03-25T09:37:29;100047.38;;;13.03;54.96
11648;BME280;5880;52.342;9.662;2024-03-25T09:39:55;100048.97;;;12.99;54.87
11648;BME280;5880;52.342;9.662;2024-03-25T09:42:33;100061.63;;;13.00;54.47
11648;BME280;5880;52.342;9.662;2024-03-25T09:44:59;100060.50;;;12.96;54.54
11648;BME280;5880;52.342;9.662;2024-03-25T09:47:25;100061.84;;;12.94;54.42
11648;BME280;5880;52.342;9.662;2024-03-25T09:49:54;100058.53;;;12.92;54.25
11648;BME280;5880;52.342;9.662;2024-03-25T09:52:20;100059.88;;;12.89;54.21
11648;BME280;5880;52.342;9.662;2024-03-25T09:54:46;100067.84;;;12.91;54.46
11648;BME280;5880;52.342;9.662;2024-03-25T09:57:12;100071.41;;;12.91;54.35
11648;BME280;5880;52.342;9.662;2024-03-25T09:59:41;100065.94;;;12.91;54.43
11648;BME280;5880;52.342;9.662;2024-03-25T10:02:11;100074.50;;;12.95;54.31
11648;BME280;5880;52.342;9.662;2024-03-25T10:04:46;100073.38;;;12.96;54.21
11648;BME280;5880;52.342;9.662;2024-03-25T10:07:22;100075.59;;;12.99;54.44
11648;BME280;5880;52.342;9.662;2024-03-25T10:09:52;100072.59;;;13.00;54.10
11648;BME280;5880;52.342;9.662;2024-03-25T10:12:17;100078.66;;;13.02;54.16
11648;BME280;5880;52.342;9.662;2024-03-25T10:14:43;100074.56;;;13.05;54.33
11648;BME280;5880;52.342;9.662;2024-03-25T10:17:10;100060.06;;;13.09;54.36
11648;BME280;5880;52.342;9.662;2024-03-25T10:19:36;100062.28;;;13.18;54.59
11648;BME280;5880;52.342;9.662;2024-03-25T10:22:07;100069.31;;;13.36;54.32
11648;BME280;5880;52.342;9.662;2024-03-25T10:24:44;100065.56;;;13.47;54.25
11648;BME280;5880;52.342;9.662;2024-03-25T10:27:18;100068.91;;;13.54;53.95
11648;BME280;5880;52.342;9.662;2024-03-25T10:29:46;100060.66;;;13.54;53.68
11648;BME280;5880;52.342;9.662;2024-03-25T10:32:14;100059.31;;;13.57;53.02
11648;BME280;5880;52.342;9.662;2024-03-25T10:34:40;100066.16;;;13.54;52.92
11648;BME280;5880;52.342;9.662;2024-03-25T10:37:09;100060.66;;;13.54;52.93
11648;BME280;5880;52.342;9.662;2024-03-25T10:39:43;100059.56;;;13.55;52.65
11648;BME280;5880;52.342;9.662;2024-03-25T10:42:16;100057.91;;;13.54;52.48
11648;BME280;5880;52.342;9.662;2024-03-25T10:44:44;100054.03;;;13.50;52.59
11648;BME280;5880;52.342;9.662;2024-03-25T10:47:15;100062.31;;;13.55;52.40
11648;BME280;5880;52.342;9.662;2024-03-25T10:49:50;100057.38;;;13.57;52.56
11648;BME280;5880;52.342;9.662;2024-03-25T10:52:18;100055.75;;;13.56;52.55
11648;BME280;5880;52.342;9.662;2024-03-25T10:54:47;100056.56;;;13.62;52.39
11648;BME280;5880;52.342;9.662;2024-03-25T10:57:13;100048.63;;;13.60;52.51
11648;BME280;5880;52.342;9.662;2024-03-25T10:59:42;100058.53;;;13.66;52.49
11648;BME280;5880;52.342;9.662;2024-03-25T11:02:10;100050.84;;;13.68;52.53
11648;BME280;5880;52.342;9.662;2024-03-25T11:04:37;100054.97;;;13.71;52.27
11648;BME280;5880;52.342;9.662;2024-03-25T11:07:14;100048.41;;;13.72;52.36
11648;BME280;5880;52.342;9.662;2024-03-25T11:09:42;100042.91;;;13.72;52.44
11648;BME280;5880;52.342;9.662;2024-03-25T11:12:12;100045.13;;;13.75;52.67
11648;BME280;5880;52.342;9.662;2024-03-25T11:14:39;100048.16;;;13.79;52.71
11648;BME280;5880;52.342;9.662;2024-03-25T11:17:15;100039.41;;;13.87;52.88
11648;BME280;5880;52.342;9.662;2024-03-25T11:19:41;100037.22;;;13.89;52.80
11648;BME280;5880;52.342;9.662;2024-03-25T11:22:10;100037.78;;;13.96;52.84
11648;BME280;5880;52.342;9.662;2024-03-25T11:24:36;100032.31;;;14.01;52.83
11648;BME280;5880;52.342;9.662;2024-03-25T11:27:06;100021.91;;;14.08;52.73
11648;BME280;5880;52.342;9.662;2024-03-25T11:29:32;100027.97;;;14.21;52.97
11648;BME280;5880;52.342;9.662;2024-03-25T11:32:05;100026.91;;;14.32;52.78
11648;BME280;5880;52.342;9.662;2024-03-25T11:34:32;100021.72;;;14.41;52.99
11648;BME280;5880;52.342;9.662;2024-03-25T11:36:57;100009.88;;;14.50;53.16
11648;BME280;5880;52.342;9.662;2024-03-25T11:39:24;100011.84;;;14.60;52.83
11648;BME280;5880;52.342;9.662;2024-03-25T11:41:54;100000.59;;;14.67;52.75
11648;BME280;5880;52.342;9.662;2024-03-25T11:44:21;99998.38;;;14.79;52.77
11648;BME280;5880;52.342;9.662;2024-03-25T11:46:50;100014.63;;;14.86;52.22
11648;BME280;5880;52.342;9.662;2024-03-25T11:49:16;100015.44;;;14.86;51.90
11648;BME280;5880;52.342;9.662;2024-03-25T11:51:45;100018.75;;;14.83;51.54
11648;BME280;5880;52.342;9.662;2024-03-25T11:54:15;100017.63;;;14.79;51.27
11648;BME280;5880;52.342;9.662;2024-03-25T11:56:41;100019.56;;;14.73;50.95
11648;BME280;5880;52.342;9.662;2024-03-25T11:59:08;100014.91;;;14.69;50.62
11648;BME280;5880;52.342;9.662;2024-03-25T12:01:36;100015.41;;;14.61;50.42
11648;BME280;5880;52.342;9.662;2024-03-25T12:04:16;100019.28;;;14.54;50.12
11648;BME280;5880;52.342;9.662;2024-03-25T12:06:42;100017.59;;;14.43;50.19
11648;BME280;5880;52.342;9.662;2024-03-25T12:09:07;100023.63;;;14.40;50.21
11648;BME280;5880;52.342;9.662;2024-03-25T12:11:52;100023.59;;;14.35;50.15
11648;BME280;5880;52.342;9.662;2024-03-25T12:14:19;100023.06;;;14.33;49.94
11648;BME280;5880;52.342;9.662;2024-03-25T12:16:45;100022.78;;;14.29;50.13
11648;BME280;5880;52.342;9.662;2024-03-25T12:19:11;100018.66;;;14.27;49.95
11648;BME280;5880;52.342;9.662;2024-03-25T12:21:37;100013.16;;;14.27;50.09
11648;BME280;5880;52.342;9.662;2024-03-25T12:24:03;100006.53;;;14.28;50.01
11648;BME280;5880;52.342;9.662;2024-03-25T12:26:31;100006.53;;;14.28;50.02
11648;BME280;5880;52.342;9.662;2024-03-25T12:28:58;100007.09;;;14.30;50.17
11648;BME280;5880;52.342;9.662;2024-03-25T12:31:24;100003.84;;;14.33;50.25
11648;BME280;5880;52.342;9.662;2024-03-25T12:33:50;99999.72;;;14.35;50.24
11648;BME280;5880;52.342;9.662;2024-03-25T12:36:15;100001.63;;;14.40;50.23
11648;BME280;5880;52.342;9.662;2024-03-25T12:38:41;99994.47;;;14.44;50.18
11648;BME280;5880;52.342;9.662;2024-03-25T12:41:12;99995.84;;;14.47;50.01
11648;BME280;5880;52.342;9.662;2024-03-25T12:43:44;99990.66;;;14.50;50.16
11648;BME280;5880;52.342;9.662;2024-03-25T12:46:11;99992.84;;;14.53;50.28
11648;BME280;5880;52.342;9.662;2024-03-25T12:48:37;99986.84;;;14.56;49.92
11648;BME280;5880;52.342;9.662;2024-03-25T12:51:04;99990.97;;;14.59;49.94
11648;BME280;5880;52.342;9.662;2024-03-25T12:53:30;99989.84;;;14.60;49.77
11648;BME280;5880;52.342;9.662;2024-03-25T12:55:56;99989.28;;;14.63;50.07
11648;BME280;5880;52.342;9.662;2024-03-25T12:58:22;99977.75;;;14.66;49.92
11648;BME280;5880;52.342;9.662;2024-03-25T13:00:48;99979.13;;;14.69;49.83
11648;BME280;5880;52.342;9.662;2024-03-25T13:03:14;99979.97;;;14.69;49.87
11648;BME280;5880;52.342;9.662;2024-03-25T13:05:43;99972.53;;;14.70;49.63
11648;BME280;5880;52.342;9.662;2024-03-25T13:08:09;99971.44;;;14.71;49.51